Аэропорт: Кневичи. Владивосток

ICAO: UHWW

METAR:
2020-06-01 00:30:00
UHWW 010030Z 17008MPS 3100 -TSRA BKN010CB 16/15 Q1001 R25L/290060 NOSIG RMK QFE749
METAR:
2020-05-31 23:00:00
TAF COR UHWW 312300Z 0100/0124 16003MPS 3500 -SHRA BKN011 BKN020CB TEMPO 0100/0112 VRB12MPS 1000 TSRA BECMG 0112/0114 3100 BR